sensor_id;sensor_type;location;lat;lon;timestamp;P1;durP1;ratioP1;P2;durP2;ratioP2
52268;SDS011;38224;50.950;4.100;2023-01-13T00:01:20;25.80;;;4.47;;
52268;SDS011;38224;50.950;4.100;2023-01-13T00:03:46;31.88;;;5.10;;
52268;SDS011;38224;50.950;4.100;2023-01-13T00:06:12;45.53;;;5.80;;
52268;SDS011;38224;50.950;4.100;2023-01-13T00:08:38;46.53;;;6.85;;
52268;SDS011;38224;50.950;4.100;2023-01-13T00:11:03;31.25;;;5.95;;
52268;SDS011;38224;50.950;4.100;2023-01-13T00:13:28;39.08;;;5.57;;
52268;SDS011;38224;50.950;4.100;2023-01-13T00:15:58;38.67;;;5.72;;
52268;SDS011;38224;50.950;4.100;2023-01-13T00:18:24;34.28;;;5.75;;
52268;SDS011;38224;50.950;4.100;2023-01-13T00:21:05;36.10;;;5.38;;
52268;SDS011;38224;50.950;4.100;2023-01-13T00:23:31;45.53;;;5.72;;
52268;SDS011;38224;50.950;4.100;2023-01-13T00:25:58;42.00;;;6.13;;
52268;SDS011;38224;50.950;4.100;2023-01-13T00:28:23;41.17;;;5.53;;
52268;SDS011;38224;50.950;4.100;2023-01-13T00:30:49;33.65;;;6.10;;
52268;SDS011;38224;50.950;4.100;2023-01-13T00:33:14;32.92;;;5.97;;
52268;SDS011;38224;50.950;4.100;2023-01-13T00:35:39;34.77;;;6.10;;
52268;SDS011;38224;50.950;4.100;2023-01-13T00:38:05;50.17;;;6.23;;
52268;SDS011;38224;50.950;4.100;2023-01-13T00:40:30;43.35;;;6.20;;
52268;SDS011;38224;50.950;4.100;2023-01-13T00:42:55;37.22;;;7.03;;
52268;SDS011;38224;50.950;4.100;2023-01-13T00:45:39;33.60;;;5.13;;
52268;SDS011;38224;50.950;4.100;2023-01-13T00:48:04;27.17;;;6.50;;
52268;SDS011;38224;50.950;4.100;2023-01-13T00:50:30;46.17;;;7.33;;
52268;SDS011;38224;50.950;4.100;2023-01-13T00:52:57;32.55;;;5.60;;
52268;SDS011;38224;50.950;4.100;2023-01-13T00:55:24;36.40;;;4.85;;
52268;SDS011;38224;50.950;4.100;2023-01-13T00:57:49;33.87;;;5.87;;
52268;SDS011;38224;50.950;4.100;2023-01-13T01:00:14;43.03;;;5.85;;
52268;SDS011;38224;50.950;4.100;2023-01-13T01:02:40;27.95;;;4.47;;
52268;SDS011;38224;50.950;4.100;2023-01-13T01:05:05;37.13;;;4.50;;
52268;SDS011;38224;50.950;4.100;2023-01-13T01:07:30;25.15;;;4.60;;
52268;SDS011;38224;50.950;4.100;2023-01-13T01:09:56;28.77;;;4.47;;
52268;SDS011;38224;50.950;4.100;2023-01-13T01:12:21;33.50;;;5.37;;
52268;SDS011;38224;50.950;4.100;2023-01-13T01:14:46;36.53;;;5.33;;
52268;SDS011;38224;50.950;4.100;2023-01-13T01:17:11;27.58;;;5.15;;
52268;SDS011;38224;50.950;4.100;2023-01-13T01:19:36;37.13;;;5.10;;
52268;SDS011;38224;50.950;4.100;2023-01-13T01:22:02;30.42;;;5.05;;
52268;SDS011;38224;50.950;4.100;2023-01-13T01:24:28;31.65;;;3.85;;
52268;SDS011;38224;50.950;4.100;2023-01-13T01:26:53;30.40;;;4.20;;
52268;SDS011;38224;50.950;4.100;2023-01-13T01:29:18;30.43;;;4.67;;
52268;SDS011;38224;50.950;4.100;2023-01-13T01:31:43;33.23;;;4.37;;
52268;SDS011;38224;50.950;4.100;2023-01-13T01:34:09;35.90;;;7.00;;
52268;SDS011;38224;50.950;4.100;2023-01-13T01:36:34;24.45;;;4.20;;
52268;SDS011;38224;50.950;4.100;2023-01-13T01:39:00;24.83;;;4.95;;
52268;SDS011;38224;50.950;4.100;2023-01-13T01:41:27;26.30;;;4.30;;
52268;SDS011;38224;50.950;4.100;2023-01-13T01:46:45;27.67;;;4.35;;
52268;SDS011;38224;50.950;4.100;2023-01-13T01:49:14;23.45;;;3.97;;
52268;SDS011;38224;50.950;4.100;2023-01-13T01:51:42;29.92;;;3.88;;
52268;SDS011;38224;50.950;4.100;2023-01-13T01:54:08;19.85;;;3.60;;
52268;SDS011;38224;50.950;4.100;2023-01-13T01:56:36;29.98;;;4.68;;
52268;SDS011;38224;50.950;4.100;2023-01-13T01:59:02;26.98;;;4.00;;
52268;SDS011;38224;50.950;4.100;2023-01-13T02:01:27;26.27;;;4.13;;
52268;SDS011;38224;50.950;4.100;2023-01-13T02:03:55;25.52;;;3.78;;
52268;SDS011;38224;50.950;4.100;2023-01-13T02:06:21;16.08;;;3.53;;
52268;SDS011;38224;50.950;4.100;2023-01-13T02:08:47;20.02;;;3.00;;
52268;SDS011;38224;50.950;4.100;2023-01-13T02:11:25;23.40;;;3.22;;
52268;SDS011;38224;50.950;4.100;2023-01-13T02:14:10;20.85;;;3.13;;
52268;SDS011;38224;50.950;4.100;2023-01-13T02:16:35;17.60;;;3.20;;
52268;SDS011;38224;50.950;4.100;2023-01-13T02:19:11;18.02;;;4.78;;
52268;SDS011;38224;50.950;4.100;2023-01-13T02:27:22;18.63;;;3.17;;
52268;SDS011;38224;50.950;4.100;2023-01-13T02:32:39;28.48;;;4.78;;
52268;SDS011;38224;50.950;4.100;2023-01-13T02:37:37;20.45;;;3.85;;
52268;SDS011;38224;50.950;4.100;2023-01-13T02:40:49;25.05;;;3.50;;
52268;SDS011;38224;50.950;4.100;2023-01-13T02:42:52;17.65;;;3.38;;
52268;SDS011;38224;50.950;4.100;2023-01-13T02:45:40;24.65;;;3.35;;
52268;SDS011;38224;50.950;4.100;2023-01-13T02:48:09;25.35;;;3.25;;
52268;SDS011;38224;50.950;4.100;2023-01-13T02:50:39;33.92;;;5.25;;
52268;SDS011;38224;50.950;4.100;2023-01-13T02:53:07;28.90;;;3.85;;
52268;SDS011;38224;50.950;4.100;2023-01-13T02:55:47;32.60;;;4.78;;
52268;SDS011;38224;50.950;4.100;2023-01-13T02:58:15;27.45;;;4.07;;
52268;SDS011;38224;50.950;4.100;2023-01-13T03:00:41;18.02;;;4.25;;
52268;SDS011;38224;50.950;4.100;2023-01-13T03:03:07;25.27;;;3.90;;
52268;SDS011;38224;50.950;4.100;2023-01-13T03:05:32;24.30;;;3.30;;
52268;SDS011;38224;50.950;4.100;2023-01-13T03:20:55;25.63;;;3.97;;
52268;SDS011;38224;50.950;4.100;2023-01-13T03:23:35;28.77;;;3.80;;
52268;SDS011;38224;50.950;4.100;2023-01-13T03:26:09;28.02;;;4.03;;
52268;SDS011;38224;50.950;4.100;2023-01-13T03:28:39;22.58;;;3.22;;
52268;SDS011;38224;50.950;4.100;2023-01-13T03:31:08;22.25;;;3.50;;
52268;SDS011;38224;50.950;4.100;2023-01-13T03:33:40;24.80;;;3.72;;
52268;SDS011;38224;50.950;4.100;2023-01-13T03:36:07;24.83;;;3.78;;
52268;SDS011;38224;50.950;4.100;2023-01-13T03:38:37;16.65;;;3.53;;
52268;SDS011;38224;50.950;4.100;2023-01-13T03:41:11;24.13;;;3.50;;
52268;SDS011;38224;50.950;4.100;2023-01-13T03:43:38;20.45;;;3.88;;
52268;SDS011;38224;50.950;4.100;2023-01-13T03:46:45;20.67;;;3.17;;
52268;SDS011;38224;50.950;4.100;2023-01-13T03:49:14;19.92;;;3.63;;
52268;SDS011;38224;50.950;4.100;2023-01-13T03:51:41;17.90;;;3.40;;
52268;SDS011;38224;50.950;4.100;2023-01-13T03:54:10;23.35;;;3.20;;
52268;SDS011;38224;50.950;4.100;2023-01-13T03:56:46;21.25;;;3.75;;
52268;SDS011;38224;50.950;4.100;2023-01-13T03:59:14;22.52;;;4.22;;
52268;SDS011;38224;50.950;4.100;2023-01-13T04:01:41;19.90;;;4.22;;
52268;SDS011;38224;50.950;4.100;2023-01-13T04:04:09;18.45;;;3.25;;
52268;SDS011;38224;50.950;4.100;2023-01-13T04:09:17;15.57;;;2.80;;
52268;SDS011;38224;50.950;4.100;2023-01-13T04:12:00;20.23;;;3.85;;
52268;SDS011;38224;50.950;4.100;2023-01-13T04:14:26;16.13;;;3.03;;
52268;SDS011;38224;50.950;4.100;2023-01-13T04:16:52;9.23;;;2.60;;
52268;SDS011;38224;50.950;4.100;2023-01-13T04:19:18;21.42;;;2.60;;
52268;SDS011;38224;50.950;4.100;2023-01-13T04:21:43;18.67;;;3.50;;
52268;SDS011;38224;50.950;4.100;2023-01-13T04:24:08;16.98;;;2.90;;
52268;SDS011;38224;50.950;4.100;2023-01-13T04:26:34;19.15;;;3.40;;
52268;SDS011;38224;50.950;4.100;2023-01-13T04:28:59;15.95;;;2.83;;
52268;SDS011;38224;50.950;4.100;2023-01-13T04:31:24;20.57;;;3.83;;
52268;SDS011;38224;50.950;4.100;2023-01-13T04:33:49;22.55;;;3.83;;
52268;SDS011;38224;50.950;4.100;2023-01-13T04:36:15;16.80;;;2.87;;
52268;SDS011;38224;50.950;4.100;2023-01-13T04:38:40;25.73;;;3.72;;
52268;SDS011;38224;50.950;4.100;2023-01-13T04:41:05;18.77;;;3.30;;
52268;SDS011;38224;50.950;4.100;2023-01-13T04:43:31;19.08;;;2.97;;
52268;SDS011;38224;50.950;4.100;2023-01-13T04:45:56;27.33;;;4.20;;
52268;SDS011;38224;50.950;4.100;2023-01-13T04:48:21;26.00;;;4.43;;
52268;SDS011;38224;50.950;4.100;2023-01-13T04:50:46;25.93;;;4.37;;
52268;SDS011;38224;50.950;4.100;2023-01-13T04:53:12;22.80;;;3.35;;
52268;SDS011;38224;50.950;4.100;2023-01-13T04:55:37;22.47;;;3.30;;
52268;SDS011;38224;50.950;4.100;2023-01-13T04:58:06;18.52;;;3.38;;
52268;SDS011;38224;50.950;4.100;2023-01-13T05:00:32;21.13;;;2.67;;
52268;SDS011;38224;50.950;4.100;2023-01-13T05:02:57;20.95;;;3.53;;
52268;SDS011;38224;50.950;4.100;2023-01-13T05:05:23;19.15;;;3.58;;
52268;SDS011;38224;50.950;4.100;2023-01-13T05:07:49;20.63;;;2.88;;
52268;SDS011;38224;50.950;4.100;2023-01-13T05:10:14;18.37;;;2.63;;
52268;SDS011;38224;50.950;4.100;2023-01-13T05:12:39;20.02;;;3.35;;
52268;SDS011;38224;50.950;4.100;2023-01-13T05:15:23;22.90;;;3.03;;
52268;SDS011;38224;50.950;4.100;2023-01-13T05:18:07;17.00;;;3.15;;
52268;SDS011;38224;50.950;4.100;2023-01-13T05:20:32;17.02;;;2.78;;
52268;SDS011;38224;50.950;4.100;2023-01-13T05:22:58;20.92;;;3.00;;
52268;SDS011;38224;50.950;4.100;2023-01-13T05:25:41;20.30;;;4.05;;
52268;SDS011;38224;50.950;4.100;2023-01-13T05:28:07;18.80;;;4.63;;
52268;SDS011;38224;50.950;4.100;2023-01-13T05:30:37;26.20;;;4.10;;
52268;SDS011;38224;50.950;4.100;2023-01-13T05:33:03;23.00;;;3.03;;
52268;SDS011;38224;50.950;4.100;2023-01-13T05:35:28;21.50;;;3.35;;
52268;SDS011;38224;50.950;4.100;2023-01-13T05:37:54;20.55;;;3.78;;
52268;SDS011;38224;50.950;4.100;2023-01-13T05:40:19;21.30;;;4.00;;
52268;SDS011;38224;50.950;4.100;2023-01-13T05:43:04;22.42;;;3.22;;
52268;SDS011;38224;50.950;4.100;2023-01-13T05:48:11;32.40;;;4.73;;
52268;SDS011;38224;50.950;4.100;2023-01-13T05:50:36;34.63;;;4.95;;
52268;SDS011;38224;50.950;4.100;2023-01-13T05:53:01;22.20;;;3.20;;
52268;SDS011;38224;50.950;4.100;2023-01-13T05:55:27;30.35;;;5.07;;
52268;SDS011;38224;50.950;4.100;2023-01-13T05:57:52;25.87;;;3.57;;
52268;SDS011;38224;50.950;4.100;2023-01-13T06:00:17;31.02;;;4.70;;
52268;SDS011;38224;50.950;4.100;2023-01-13T06:02:43;33.20;;;4.68;;
52268;SDS011;38224;50.950;4.100;2023-01-13T06:05:08;20.03;;;3.67;;
52268;SDS011;38224;50.950;4.100;2023-01-13T06:07:33;27.85;;;4.97;;
52268;SDS011;38224;50.950;4.100;2023-01-13T06:09:58;31.30;;;4.87;;
52268;SDS011;38224;50.950;4.100;2023-01-13T06:12:24;30.77;;;4.33;;
52268;SDS011;38224;50.950;4.100;2023-01-13T06:14:49;30.33;;;4.40;;
52268;SDS011;38224;50.950;4.100;2023-01-13T06:17:14;20.37;;;3.87;;
52268;SDS011;38224;50.950;4.100;2023-01-13T06:19:40;24.88;;;3.72;;
52268;SDS011;38224;50.950;4.100;2023-01-13T06:22:14;26.73;;;4.25;;
52268;SDS011;38224;50.950;4.100;2023-01-13T06:24:39;29.73;;;4.30;;
52268;SDS011;38224;50.950;4.100;2023-01-13T06:27:05;32.47;;;5.22;;
52268;SDS011;38224;50.950;4.100;2023-01-13T06:29:32;24.38;;;3.92;;
52268;SDS011;38224;50.950;4.100;2023-01-13T06:31:57;28.40;;;5.75;;
52268;SDS011;38224;50.950;4.100;2023-01-13T06:34:23;28.48;;;4.70;;
52268;SDS011;38224;50.950;4.100;2023-01-13T06:36:49;42.28;;;4.75;;
52268;SDS011;38224;50.950;4.100;2023-01-13T06:39:17;29.17;;;4.32;;
52268;SDS011;38224;50.950;4.100;2023-01-13T06:41:43;32.20;;;5.45;;
52268;SDS011;38224;50.950;4.100;2023-01-13T06:44:27;45.78;;;6.47;;
52268;SDS011;38224;50.950;4.100;2023-01-13T06:46:52;25.27;;;4.63;;
52268;SDS011;38224;50.950;4.100;2023-01-13T06:49:18;42.08;;;4.78;;
52268;SDS011;38224;50.950;4.100;2023-01-13T06:51:43;36.33;;;5.40;;
52268;SDS011;38224;50.950;4.100;2023-01-13T06:54:08;32.55;;;5.18;;
52268;SDS011;38224;50.950;4.100;2023-01-13T06:56:34;33.23;;;5.53;;
52268;SDS011;38224;50.950;4.100;2023-01-13T06:58:59;35.30;;;5.70;;
52268;SDS011;38224;50.950;4.100;2023-01-13T07:01:24;35.73;;;5.27;;
52268;SDS011;38224;50.950;4.100;2023-01-13T07:03:49;34.33;;;4.53;;
52268;SDS011;38224;50.950;4.100;2023-01-13T07:06:15;34.58;;;5.50;;
52268;SDS011;38224;50.950;4.100;2023-01-13T07:08:41;36.85;;;5.70;;
52268;SDS011;38224;50.950;4.100;2023-01-13T07:11:06;36.38;;;5.05;;
52268;SDS011;38224;50.950;4.100;2023-01-13T07:13:33;33.10;;;4.55;;
52268;SDS011;38224;50.950;4.100;2023-01-13T07:16:17;31.75;;;5.32;;
52268;SDS011;38224;50.950;4.100;2023-01-13T07:18:42;34.83;;;5.30;;
52268;SDS011;38224;50.950;4.100;2023-01-13T07:21:08;38.70;;;5.27;;
52268;SDS011;38224;50.950;4.100;2023-01-13T07:23:37;30.85;;;4.43;;
52268;SDS011;38224;50.950;4.100;2023-01-13T07:26:04;32.70;;;4.80;;
52268;SDS011;38224;50.950;4.100;2023-01-13T07:28:30;37.30;;;6.10;;
52268;SDS011;38224;50.950;4.100;2023-01-13T07:30:55;34.90;;;4.75;;
52268;SDS011;38224;50.950;4.100;2023-01-13T07:33:21;32.88;;;6.18;;
52268;SDS011;38224;50.950;4.100;2023-01-13T07:35:46;34.78;;;5.80;;
52268;SDS011;38224;50.950;4.100;2023-01-13T07:38:12;29.25;;;4.45;;
52268;SDS011;38224;50.950;4.100;2023-01-13T07:40:38;39.22;;;5.30;;
52268;SDS011;38224;50.950;4.100;2023-01-13T07:43:03;39.95;;;6.25;;
52268;SDS011;38224;50.950;4.100;2023-01-13T07:45:47;43.53;;;5.72;;
52268;SDS011;38224;50.950;4.100;2023-01-13T07:48:13;38.27;;;6.83;;
52268;SDS011;38224;50.950;4.100;2023-01-13T07:50:38;43.53;;;5.87;;
52268;SDS011;38224;50.950;4.100;2023-01-13T07:53:03;47.10;;;6.40;;
52268;SDS011;38224;50.950;4.100;2023-01-13T07:55:28;37.13;;;5.95;;
52268;SDS011;38224;50.950;4.100;2023-01-13T07:57:54;44.65;;;6.65;;
52268;SDS011;38224;50.950;4.100;2023-01-13T08:00:19;45.42;;;5.63;;
52268;SDS011;38224;50.950;4.100;2023-01-13T08:02:44;38.50;;;6.32;;
52268;SDS011;38224;50.950;4.100;2023-01-13T08:05:10;38.10;;;5.67;;
52268;SDS011;38224;50.950;4.100;2023-01-13T08:07:35;35.83;;;5.70;;
52268;SDS011;38224;50.950;4.100;2023-01-13T08:10:01;48.08;;;7.22;;
52268;SDS011;38224;50.950;4.100;2023-01-13T08:12:27;31.83;;;4.85;;
52268;SDS011;38224;50.950;4.100;2023-01-13T08:15:11;36.17;;;5.93;;
52268;SDS011;38224;50.950;4.100;2023-01-13T08:17:36;40.17;;;6.20;;
52268;SDS011;38224;50.950;4.100;2023-01-13T08:20:02;36.93;;;6.00;;
52268;SDS011;38224;50.950;4.100;2023-01-13T08:22:28;32.50;;;6.20;;
52268;SDS011;38224;50.950;4.100;2023-01-13T08:24:55;34.97;;;5.13;;
52268;SDS011;38224;50.950;4.100;2023-01-13T08:27:20;40.78;;;6.82;;
52268;SDS011;38224;50.950;4.100;2023-01-13T08:29:45;46.23;;;7.20;;
52268;SDS011;38224;50.950;4.100;2023-01-13T08:32:11;45.58;;;6.70;;
52268;SDS011;38224;50.950;4.100;2023-01-13T08:34:36;40.72;;;6.18;;
52268;SDS011;38224;50.950;4.100;2023-01-13T08:37:01;33.67;;;5.77;;
52268;SDS011;38224;50.950;4.100;2023-01-13T08:39:26;32.43;;;5.87;;
52268;SDS011;38224;50.950;4.100;2023-01-13T08:41:52;42.83;;;6.65;;
52268;SDS011;38224;50.950;4.100;2023-01-13T08:44:27;30.65;;;5.90;;
52268;SDS011;38224;50.950;4.100;2023-01-13T08:46:53;36.30;;;6.70;;
52268;SDS011;38224;50.950;4.100;2023-01-13T08:49:18;31.65;;;5.60;;
52268;SDS011;38224;50.950;4.100;2023-01-13T08:51:44;34.25;;;7.03;;
52268;SDS011;38224;50.950;4.100;2023-01-13T08:54:09;38.15;;;6.03;;
52268;SDS011;38224;50.950;4.100;2023-01-13T08:56:35;42.70;;;6.75;;
52268;SDS011;38224;50.950;4.100;2023-01-13T08:59:00;35.07;;;7.37;;
52268;SDS011;38224;50.950;4.100;2023-01-13T09:01:25;39.17;;;6.10;;
52268;SDS011;38224;50.950;4.100;2023-01-13T09:03:50;39.38;;;6.57;;
52268;SDS011;38224;50.950;4.100;2023-01-13T09:06:16;39.33;;;6.45;;
52268;SDS011;38224;50.950;4.100;2023-01-13T09:08:41;34.53;;;7.07;;
52268;SDS011;38224;50.950;4.100;2023-01-13T09:11:08;35.20;;;5.40;;
52268;SDS011;38224;50.950;4.100;2023-01-13T09:14:06;33.95;;;6.07;;
52268;SDS011;38224;50.950;4.100;2023-01-13T09:16:31;33.45;;;6.10;;
52268;SDS011;38224;50.950;4.100;2023-01-13T09:18:57;52.13;;;7.35;;
52268;SDS011;38224;50.950;4.100;2023-01-13T09:21:22;38.30;;;6.22;;
52268;SDS011;38224;50.950;4.100;2023-01-13T09:23:47;42.27;;;6.50;;
52268;SDS011;38224;50.950;4.100;2023-01-13T09:26:14;42.90;;;6.90;;
52268;SDS011;38224;50.950;4.100;2023-01-13T09:28:40;31.10;;;5.20;;
52268;SDS011;38224;50.950;4.100;2023-01-13T09:31:05;35.90;;;6.20;;
52268;SDS011;38224;50.950;4.100;2023-01-13T09:33:30;35.57;;;7.10;;
52268;SDS011;38224;50.950;4.100;2023-01-13T09:36:15;37.72;;;6.18;;
52268;SDS011;38224;50.950;4.100;2023-01-13T09:38:40;42.38;;;7.32;;
52268;SDS011;38224;50.950;4.100;2023-01-13T09:41:05;45.07;;;6.27;;
52268;SDS011;38224;50.950;4.100;2023-01-13T09:43:51;36.13;;;5.93;;
52268;SDS011;38224;50.950;4.100;2023-01-13T09:46:21;30.85;;;5.68;;
52268;SDS011;38224;50.950;4.100;2023-01-13T09:49:08;31.48;;;6.03;;
52268;SDS011;38224;50.950;4.100;2023-01-13T09:51:41;42.42;;;7.45;;
52268;SDS011;38224;50.950;4.100;2023-01-13T09:54:15;37.72;;;6.20;;
52268;SDS011;38224;50.950;4.100;2023-01-13T09:56:44;28.20;;;5.63;;
52268;SDS011;38224;50.950;4.100;2023-01-13T09:59:09;39.67;;;6.30;;
52268;SDS011;38224;50.950;4.100;2023-01-13T10:01:56;37.90;;;6.35;;
52268;SDS011;38224;50.950;4.100;2023-01-13T10:04:24;46.78;;;7.60;;
52268;SDS011;38224;50.950;4.100;2023-01-13T10:06:57;38.20;;;6.85;;
52268;SDS011;38224;50.950;4.100;2023-01-13T10:09:33;30.50;;;5.78;;
52268;SDS011;38224;50.950;4.100;2023-01-13T10:12:05;35.20;;;5.53;;
52268;SDS011;38224;50.950;4.100;2023-01-13T10:14:54;38.53;;;6.63;;
52268;SDS011;38224;50.950;4.100;2023-01-13T10:19:55;33.08;;;6.00;;
52268;SDS011;38224;50.950;4.100;2023-01-13T10:22:29;43.00;;;5.68;;
52268;SDS011;38224;50.950;4.100;2023-01-13T10:27:48;26.80;;;6.40;;
52268;SDS011;38224;50.950;4.100;2023-01-13T10:32:40;38.53;;;5.68;;
52268;SDS011;38224;50.950;4.100;2023-01-13T10:35:07;37.15;;;5.03;;
52268;SDS011;38224;50.950;4.100;2023-01-13T10:37:32;31.65;;;5.35;;
52268;SDS011;38224;50.950;4.100;2023-01-13T10:39:59;27.38;;;5.45;;
52268;SDS011;38224;50.950;4.100;2023-01-13T10:42:25;25.65;;;4.63;;
52268;SDS011;38224;50.950;4.100;2023-01-13T10:44:54;34.42;;;5.03;;
52268;SDS011;38224;50.950;4.100;2023-01-13T10:49:45;21.05;;;4.35;;
52268;SDS011;38224;50.950;4.100;2023-01-13T10:52:23;27.65;;;5.53;;
52268;SDS011;38224;50.950;4.100;2023-01-13T10:54:50;37.17;;;5.88;;
52268;SDS011;38224;50.950;4.100;2023-01-13T10:57:20;35.63;;;6.18;;
52268;SDS011;38224;50.950;4.100;2023-01-13T10:59:46;30.23;;;5.03;;
52268;SDS011;38224;50.950;4.100;2023-01-13T11:04:45;26.90;;;5.32;;
52268;SDS011;38224;50.950;4.100;2023-01-13T11:07:21;32.50;;;5.10;;
52268;SDS011;38224;50.950;4.100;2023-01-13T11:09:47;33.45;;;5.55;;
52268;SDS011;38224;50.950;4.100;2023-01-13T11:12:32;40.97;;;6.30;;
52268;SDS011;38224;50.950;4.100;2023-01-13T11:14:58;28.88;;;4.93;;
52268;SDS011;38224;50.950;4.100;2023-01-13T11:20:02;30.27;;;4.93;;
52268;SDS011;38224;50.950;4.100;2023-01-13T11:22:33;32.50;;;5.60;;
52268;SDS011;38224;50.950;4.100;2023-01-13T11:25:01;37.58;;;5.38;;
52268;SDS011;38224;50.950;4.100;2023-01-13T11:30:08;31.63;;;5.15;;
52268;SDS011;38224;50.950;4.100;2023-01-13T11:32:42;31.98;;;5.85;;
52268;SDS011;38224;50.950;4.100;2023-01-13T11:35:14;38.58;;;6.10;;
52268;SDS011;38224;50.950;4.100;2023-01-13T11:37:40;26.90;;;6.63;;
52268;SDS011;38224;50.950;4.100;2023-01-13T11:40:12;31.13;;;6.75;;
52268;SDS011;38224;50.950;4.100;2023-01-13T11:45:28;28.52;;;5.68;;
52268;SDS011;38224;50.950;4.100;2023-01-13T11:47:56;28.42;;;5.53;;
52268;SDS011;38224;50.950;4.100;2023-01-13T12:03:42;23.83;;;3.85;;
52268;SDS011;38224;50.950;4.100;2023-01-13T12:16:58;23.80;;;3.80;;
52268;SDS011;38224;50.950;4.100;2023-01-13T12:19:26;26.15;;;4.28;;
52268;SDS011;38224;50.950;4.100;2023-01-13T12:24:38;29.80;;;4.30;;
52268;SDS011;38224;50.950;4.100;2023-01-13T12:27:10;26.92;;;4.13;;
52268;SDS011;38224;50.950;4.100;2023-01-13T12:29:37;28.00;;;4.45;;
52268;SDS011;38224;50.950;4.100;2023-01-13T12:32:11;32.33;;;5.15;;
52268;SDS011;38224;50.950;4.100;2023-01-13T12:34:52;28.73;;;4.88;;
52268;SDS011;38224;50.950;4.100;2023-01-13T12:37:26;25.88;;;4.97;;
52268;SDS011;38224;50.950;4.100;2023-01-13T12:47:43;26.20;;;4.95;;
52268;SDS011;38224;50.950;4.100;2023-01-13T12:52:57;24.15;;;4.00;;
52268;SDS011;38224;50.950;4.100;2023-01-13T12:55:23;24.50;;;4.22;;
52268;SDS011;38224;50.950;4.100;2023-01-13T12:58:01;25.77;;;4.95;;
52268;SDS011;38224;50.950;4.100;2023-01-13T13:05:58;23.38;;;3.80;;
52268;SDS011;38224;50.950;4.100;2023-01-13T13:13:56;26.90;;;4.22;;
52268;SDS011;38224;50.950;4.100;2023-01-13T13:18:50;25.10;;;5.80;;
52268;SDS011;38224;50.950;4.100;2023-01-13T13:21:15;24.30;;;4.32;;
52268;SDS011;38224;50.950;4.100;2023-01-13T13:28:43;25.00;;;4.40;;
52268;SDS011;38224;50.950;4.100;2023-01-13T13:31:17;21.65;;;4.60;;
52268;SDS011;38224;50.950;4.100;2023-01-13T13:36:17;27.83;;;4.60;;
52268;SDS011;38224;50.950;4.100;2023-01-13T13:41:33;28.73;;;5.88;;
52268;SDS011;38224;50.950;4.100;2023-01-13T13:44:32;22.13;;;3.83;;
52268;SDS011;38224;50.950;4.100;2023-01-13T13:47:18;22.23;;;3.85;;
52268;SDS011;38224;50.950;4.100;2023-01-13T13:49:44;28.33;;;4.82;;
52268;SDS011;38224;50.950;4.100;2023-01-13T13:52:16;23.52;;;4.25;;
52268;SDS011;38224;50.950;4.100;2023-01-13T13:54:43;25.35;;;3.70;;
52268;SDS011;38224;50.950;4.100;2023-01-13T13:57:54;24.23;;;4.55;;
52268;SDS011;38224;50.950;4.100;2023-01-13T14:00:00;23.00;;;4.25;;
52268;SDS011;38224;50.950;4.100;2023-01-13T14:02:30;23.17;;;4.47;;
52268;SDS011;38224;50.950;4.100;2023-01-13T14:05:06;25.60;;;4.03;;
52268;SDS011;38224;50.950;4.100;2023-01-13T14:07:40;22.80;;;4.60;;
52268;SDS011;38224;50.950;4.100;2023-01-13T14:10:05;23.30;;;4.70;;
52268;SDS011;38224;50.950;4.100;2023-01-13T14:12:35;26.52;;;4.18;;
52268;SDS011;38224;50.950;4.100;2023-01-13T14:15:01;28.98;;;4.38;;
52268;SDS011;38224;50.950;4.100;2023-01-13T14:17:27;26.27;;;3.90;;
52268;SDS011;38224;50.950;4.100;2023-01-13T14:20:00;27.38;;;3.80;;
52268;SDS011;38224;50.950;4.100;2023-01-13T14:22:26;24.35;;;4.72;;
52268;SDS011;38224;50.950;4.100;2023-01-13T14:24:52;22.05;;;4.10;;
52268;SDS011;38224;50.950;4.100;2023-01-13T14:27:22;30.77;;;5.03;;
52268;SDS011;38224;50.950;4.100;2023-01-13T14:29:50;23.77;;;4.57;;
52268;SDS011;38224;50.950;4.100;2023-01-13T14:32:16;20.23;;;4.38;;
52268;SDS011;38224;50.950;4.100;2023-01-13T14:34:42;25.55;;;3.83;;
52268;SDS011;38224;50.950;4.100;2023-01-13T14:39:51;32.35;;;5.03;;
52268;SDS011;38224;50.950;4.100;2023-01-13T14:42:17;23.37;;;4.63;;
52268;SDS011;38224;50.950;4.100;2023-01-13T14:44:44;23.67;;;3.70;;
52268;SDS011;38224;50.950;4.100;2023-01-13T14:49:48;31.05;;;4.63;;
52268;SDS011;38224;50.950;4.100;2023-01-13T14:52:15;28.98;;;3.78;;
52268;SDS011;38224;50.950;4.100;2023-01-13T14:54:44;22.83;;;4.10;;
52268;SDS011;38224;50.950;4.100;2023-01-13T14:59:41;32.42;;;4.40;;
52268;SDS011;38224;50.950;4.100;2023-01-13T15:04:51;20.55;;;4.68;;
52268;SDS011;38224;50.950;4.100;2023-01-13T15:07:26;21.17;;;4.90;;
52268;SDS011;38224;50.950;4.100;2023-01-13T15:09:55;26.83;;;4.07;;
52268;SDS011;38224;50.950;4.100;2023-01-13T15:12:32;16.02;;;3.60;;
52268;SDS011;38224;50.950;4.100;2023-01-13T15:14:59;27.13;;;4.03;;
52268;SDS011;38224;50.950;4.100;2023-01-13T15:17:25;24.50;;;3.72;;
52268;SDS011;38224;50.950;4.100;2023-01-13T15:19:52;18.65;;;4.25;;
52268;SDS011;38224;50.950;4.100;2023-01-13T15:22:17;22.90;;;4.45;;
52268;SDS011;38224;50.950;4.100;2023-01-13T15:24:42;23.13;;;3.93;;
52268;SDS011;38224;50.950;4.100;2023-01-13T15:27:17;22.65;;;4.55;;
52268;SDS011;38224;50.950;4.100;2023-01-13T15:29:43;17.88;;;3.85;;
52268;SDS011;38224;50.950;4.100;2023-01-13T15:32:13;23.00;;;3.80;;
52268;SDS011;38224;50.950;4.100;2023-01-13T15:34:40;19.67;;;3.80;;
52268;SDS011;38224;50.950;4.100;2023-01-13T15:37:07;21.70;;;3.93;;
52268;SDS011;38224;50.950;4.100;2023-01-13T15:39:32;24.98;;;4.43;;
52268;SDS011;38224;50.950;4.100;2023-01-13T15:41:58;26.97;;;4.93;;
52268;SDS011;38224;50.950;4.100;2023-01-13T15:44:42;16.65;;;3.55;;
52268;SDS011;38224;50.950;4.100;2023-01-13T15:47:26;20.20;;;3.80;;
52268;SDS011;38224;50.950;4.100;2023-01-13T15:49:51;28.10;;;4.43;;
52268;SDS011;38224;50.950;4.100;2023-01-13T15:52:20;26.07;;;4.90;;
52268;SDS011;38224;50.950;4.100;2023-01-13T15:54:46;21.30;;;4.35;;
52268;SDS011;38224;50.950;4.100;2023-01-13T15:57:21;24.52;;;4.40;;
52268;SDS011;38224;50.950;4.100;2023-01-13T15:59:47;23.75;;;4.45;;
52268;SDS011;38224;50.950;4.100;2023-01-13T16:02:13;23.10;;;4.40;;
52268;SDS011;38224;50.950;4.100;2023-01-13T16:04:45;22.88;;;3.97;;
52268;SDS011;38224;50.950;4.100;2023-01-13T16:07:12;22.40;;;4.05;;
52268;SDS011;38224;50.950;4.100;2023-01-13T16:09:37;26.95;;;6.13;;
52268;SDS011;38224;50.950;4.100;2023-01-13T16:12:03;29.60;;;5.63;;
52268;SDS011;38224;50.950;4.100;2023-01-13T16:14:28;27.63;;;4.68;;
52268;SDS011;38224;50.950;4.100;2023-01-13T16:16:53;29.98;;;6.18;;
52268;SDS011;38224;50.950;4.100;2023-01-13T16:19:19;26.75;;;5.60;;
52268;SDS011;38224;50.950;4.100;2023-01-13T16:21:44;23.95;;;4.97;;
52268;SDS011;38224;50.950;4.100;2023-01-13T16:24:09;31.58;;;5.72;;
52268;SDS011;38224;50.950;4.100;2023-01-13T16:26:35;29.50;;;4.78;;
52268;SDS011;38224;50.950;4.100;2023-01-13T16:29:02;20.30;;;3.97;;
52268;SDS011;38224;50.950;4.100;2023-01-13T16:31:31;22.63;;;4.32;;
52268;SDS011;38224;50.950;4.100;2023-01-13T16:34:00;30.80;;;4.95;;
52268;SDS011;38224;50.950;4.100;2023-01-13T16:36:25;26.23;;;6.38;;
52268;SDS011;38224;50.950;4.100;2023-01-13T16:38:51;25.48;;;5.97;;
52268;SDS011;38224;50.950;4.100;2023-01-13T16:41:17;26.13;;;6.20;;
52268;SDS011;38224;50.950;4.100;2023-01-13T16:43:43;29.17;;;5.07;;
52268;SDS011;38224;50.950;4.100;2023-01-13T16:46:19;27.55;;;5.55;;